sensor_id;sensor_type;location;lat;lon;timestamp;pressure;altitude;pressure_sealevel;temperature;humidity
15272;BME280;7737;51.578;7.268;2023-04-19T00:01:54;102163.09;;;10.96;100.00
15272;BME280;7737;51.578;7.268;2023-04-19T00:04:21;102151.34;;;11.03;100.00
15272;BME280;7737;51.578;7.268;2023-04-19T00:06:48;102152.47;;;10.96;100.00
15272;BME280;7737;51.578;7.268;2023-04-19T00:09:17;102153.38;;;10.93;100.00
15272;BME280;7737;51.578;7.268;2023-04-19T00:11:44;102143.63;;;10.94;100.00
15272;BME280;7737;51.578;7.268;2023-04-19T00:14:10;102149.97;;;10.90;100.00
15272;BME280;7737;51.578;7.268;2023-04-19T00:16:37;102147.28;;;10.90;100.00
15272;BME280;7737;51.578;7.268;2023-04-19T00:19:03;102150.84;;;10.89;100.00
15272;BME280;7737;51.578;7.268;2023-04-19T00:21:30;102150.69;;;10.95;100.00
15272;BME280;7737;51.578;7.268;2023-04-19T00:23:56;102152.47;;;10.94;100.00
15272;BME280;7737;51.578;7.268;2023-04-19T00:26:24;102148.03;;;10.95;100.00
15272;BME280;7737;51.578;7.268;2023-04-19T00:28:51;102136.50;;;10.94;100.00
15272;BME280;7737;51.578;7.268;2023-04-19T00:31:17;102141.97;;;10.90;100.00
15272;BME280;7737;51.578;7.268;2023-04-19T00:33:44;102138.38;;;10.91;100.00
15272;BME280;7737;51.578;7.268;2023-04-19T00:36:10;102131.50;;;10.84;100.00
15272;BME280;7737;51.578;7.268;2023-04-19T00:38:37;102129.75;;;10.83;100.00
15272;BME280;7737;51.578;7.268;2023-04-19T00:41:03;102139.47;;;10.84;100.00
15272;BME280;7737;51.578;7.268;2023-04-19T00:43:31;102134.16;;;10.84;100.00
15272;BME280;7737;51.578;7.268;2023-04-19T00:45:58;102134.22;;;10.81;100.00
15272;BME280;7737;51.578;7.268;2023-04-19T00:48:24;102129.75;;;10.83;100.00
15272;BME280;7737;51.578;7.268;2023-04-19T00:50:51;102127.94;;;10.85;100.00
15272;BME280;7737;51.578;7.268;2023-04-19T00:53:17;102131.50;;;10.84;100.00
15272;BME280;7737;51.578;7.268;2023-04-19T00:55:44;102124.34;;;10.86;100.00
15272;BME280;7737;51.578;7.268;2023-04-19T00:58:11;102125.28;;;10.83;100.00
15272;BME280;7737;51.578;7.268;2023-04-19T01:00:39;102120.72;;;10.88;100.00
15272;BME280;7737;51.578;7.268;2023-04-19T01:03:05;102124.34;;;10.86;100.00
15272;BME280;7737;51.578;7.268;2023-04-19T01:05:32;102122.63;;;10.85;100.00
15272;BME280;7737;51.578;7.268;2023-04-19T01:07:59;102117.09;;;10.91;100.00
15272;BME280;7737;51.578;7.268;2023-04-19T01:10:26;102120.69;;;10.90;100.00
15272;BME280;7737;51.578;7.268;2023-04-19T01:12:53;102122.53;;;10.88;100.00
15272;BME280;7737;51.578;7.268;2023-04-19T01:15:19;102126.91;;;10.89;100.00
15272;BME280;7737;51.578;7.268;2023-04-19T01:17:48;102123.34;;;10.90;100.00
15272;BME280;7737;51.578;7.268;2023-04-19T01:20:14;102121.59;;;10.89;100.00
15272;BME280;7737;51.578;7.268;2023-04-19T01:22:42;102121.50;;;10.92;100.00
15272;BME280;7737;51.578;7.268;2023-04-19T01:25:09;102120.78;;;10.87;100.00
15272;BME280;7737;51.578;7.268;2023-04-19T01:27:35;102124.25;;;10.89;100.00
15272;BME280;7737;51.578;7.268;2023-04-19T01:30:02;102120.84;;;10.85;100.00
15272;BME280;7737;51.578;7.268;2023-04-19T01:32:29;102120.84;;;10.84;100.00
15272;BME280;7737;51.578;7.268;2023-04-19T01:34:55;102120.06;;;10.80;100.00
15272;BME280;7737;51.578;7.268;2023-04-19T01:37:22;102121.88;;;10.80;100.00
15272;BME280;7737;51.578;7.268;2023-04-19T01:39:50;102117.28;;;10.85;100.00
15272;BME280;7737;51.578;7.268;2023-04-19T01:42:17;102116.56;;;10.80;100.00
15272;BME280;7737;51.578;7.268;2023-04-19T01:44:43;102107.69;;;10.79;100.00
15272;BME280;7737;51.578;7.268;2023-04-19T01:47:10;102113.78;;;10.83;100.00
15272;BME280;7737;51.578;7.268;2023-04-19T01:49:36;102101.34;;;10.85;100.00
15272;BME280;7737;51.578;7.268;2023-04-19T01:52:03;102113.69;;;10.86;100.00
15272;BME280;7737;51.578;7.268;2023-04-19T01:54:30;102114.66;;;10.83;100.00
15272;BME280;7737;51.578;7.268;2023-04-19T01:56:58;102120.06;;;10.80;100.00
15272;BME280;7737;51.578;7.268;2023-04-19T01:59:25;102113.78;;;10.83;100.00
15272;BME280;7737;51.578;7.268;2023-04-19T02:01:52;102116.56;;;10.80;100.00
15272;BME280;7737;51.578;7.268;2023-04-19T02:04:19;102110.38;;;10.78;100.00
15272;BME280;7737;51.578;7.268;2023-04-19T02:06:46;102116.56;;;10.80;100.00
15272;BME280;7737;51.578;7.268;2023-04-19T02:09:12;102113.00;;;10.79;100.00
15272;BME280;7737;51.578;7.268;2023-04-19T02:11:39;102112.06;;;10.82;100.00
15272;BME280;7737;51.578;7.268;2023-04-19T02:14:06;102114.78;;;10.79;100.00
15272;BME280;7737;51.578;7.268;2023-04-19T02:16:33;102106.91;;;10.76;100.00
15272;BME280;7737;51.578;7.268;2023-04-19T02:18:59;102112.22;;;10.76;100.00
15272;BME280;7737;51.578;7.268;2023-04-19T02:21:26;102110.38;;;10.78;100.00
15272;BME280;7737;51.578;7.268;2023-04-19T02:23:53;102115.69;;;10.78;100.00
15272;BME280;7737;51.578;7.268;2023-04-19T02:26:19;102110.38;;;10.78;100.00
15272;BME280;7737;51.578;7.268;2023-04-19T02:28:46;102114.84;;;10.77;100.00
15272;BME280;7737;51.578;7.268;2023-04-19T02:31:14;102113.91;;;10.78;100.00
15272;BME280;7737;51.578;7.268;2023-04-19T02:33:40;102106.97;;;10.73;100.00
15272;BME280;7737;51.578;7.268;2023-04-19T02:36:07;102107.69;;;10.79;100.00
15272;BME280;7737;51.578;7.268;2023-04-19T02:38:34;102105.16;;;10.75;100.00
15272;BME280;7737;51.578;7.268;2023-04-19T02:41:01;102106.00;;;10.75;100.00
15272;BME280;7737;51.578;7.268;2023-04-19T02:43:28;102101.28;;;10.86;100.00
15272;BME280;7737;51.578;7.268;2023-04-19T02:45:55;102103.34;;;10.77;100.00
15272;BME280;7737;51.578;7.268;2023-04-19T02:48:23;102102.38;;;10.79;100.00
15272;BME280;7737;51.578;7.268;2023-04-19T02:50:49;102096.53;;;10.67;100.00
15272;BME280;7737;51.578;7.268;2023-04-19T02:53:16;102099.19;;;10.67;100.00
15272;BME280;7737;51.578;7.268;2023-04-19T02:55:43;102100.84;;;10.71;100.00
15272;BME280;7737;51.578;7.268;2023-04-19T02:58:09;102093.00;;;10.66;100.00
15272;BME280;7737;51.578;7.268;2023-04-19T03:00:36;102095.75;;;10.62;100.00
15272;BME280;7737;51.578;7.268;2023-04-19T03:03:02;102089.47;;;10.66;100.00
15272;BME280;7737;51.578;7.268;2023-04-19T03:05:31;102083.22;;;10.67;100.00
15272;BME280;7737;51.578;7.268;2023-04-19T03:07:57;102085.03;;;10.65;100.00
15272;BME280;7737;51.578;7.268;2023-04-19T03:10:24;102077.16;;;10.62;100.00
15272;BME280;7737;51.578;7.268;2023-04-19T03:12:51;102082.56;;;10.59;100.00
15272;BME280;7737;51.578;7.268;2023-04-19T03:15:18;102074.69;;;10.56;100.00
15272;BME280;7737;51.578;7.268;2023-04-19T03:17:44;102065.59;;;10.63;100.00
15272;BME280;7737;51.578;7.268;2023-04-19T03:20:11;102070.09;;;10.61;100.00
15272;BME280;7737;51.578;7.268;2023-04-19T03:22:39;102068.63;;;10.51;100.00
15272;BME280;7737;51.578;7.268;2023-04-19T03:25:06;102070.34;;;10.52;100.00
15272;BME280;7737;51.578;7.268;2023-04-19T03:27:33;102067.75;;;10.49;100.00
15272;BME280;7737;51.578;7.268;2023-04-19T03:30:00;102059.91;;;10.46;100.00
15272;BME280;7737;51.578;7.268;2023-04-19T03:32:27;102058.16;;;10.45;100.00
15272;BME280;7737;51.578;7.268;2023-04-19T03:34:54;102054.75;;;10.39;100.00
15272;BME280;7737;51.578;7.268;2023-04-19T03:37:20;102040.63;;;10.37;100.00
15272;BME280;7737;51.578;7.268;2023-04-19T03:39:48;102042.63;;;10.29;100.00
15272;BME280;7737;51.578;7.268;2023-04-19T03:42:14;102042.69;;;10.26;100.00
15272;BME280;7737;51.578;7.268;2023-04-19T03:44:41;102040.41;;;10.13;100.00
15272;BME280;7737;51.578;7.268;2023-04-19T03:47:07;102038.81;;;10.06;100.00
15272;BME280;7737;51.578;7.268;2023-04-19T03:49:34;102053.47;;;9.87;100.00
15272;BME280;7737;51.578;7.268;2023-04-19T03:52:01;102041.81;;;9.92;100.00
15272;BME280;7737;51.578;7.268;2023-04-19T03:54:27;102038.41;;;9.87;100.00
15272;BME280;7737;51.578;7.268;2023-04-19T03:56:55;102044.19;;;9.67;100.00
15272;BME280;7737;51.578;7.268;2023-04-19T03:59:22;102054.69;;;9.72;100.00
15272;BME280;7737;51.578;7.268;2023-04-19T04:01:49;102051.09;;;9.74;100.00
15272;BME280;7737;51.578;7.268;2023-04-19T04:04:16;102051.00;;;9.79;100.00
15272;BME280;7737;51.578;7.268;2023-04-19T04:06:43;102048.16;;;9.85;100.00
15272;BME280;7737;51.578;7.268;2023-04-19T04:09:09;102044.53;;;9.89;100.00
15272;BME280;7737;51.578;7.268;2023-04-19T04:11:36;102054.63;;;9.75;100.00
15272;BME280;7737;51.578;7.268;2023-04-19T04:14:04;102054.69;;;9.72;100.00
15272;BME280;7737;51.578;7.268;2023-04-19T04:16:31;102059.25;;;9.67;100.00
15272;BME280;7737;51.578;7.268;2023-04-19T04:18:57;102061.38;;;9.53;100.00
15272;BME280;7737;51.578;7.268;2023-04-19T04:21:24;102063.09;;;9.55;100.00
15272;BME280;7737;51.578;7.268;2023-04-19T04:23:51;102066.72;;;9.51;100.00
15272;BME280;7737;51.578;7.268;2023-04-19T04:26:18;102074.66;;;9.53;100.00
15272;BME280;7737;51.578;7.268;2023-04-19T04:28:46;102082.56;;;9.54;100.00
15272;BME280;7737;51.578;7.268;2023-04-19T04:31:14;102084.47;;;9.49;100.00
15272;BME280;7737;51.578;7.268;2023-04-19T04:33:42;102081.16;;;9.40;100.00
15272;BME280;7737;51.578;7.268;2023-04-19T04:36:10;102085.41;;;9.47;100.00
15272;BME280;7737;51.578;7.268;2023-04-19T04:38:37;102086.31;;;9.46;100.00
15272;BME280;7737;51.578;7.268;2023-04-19T04:41:04;102079.41;;;9.37;100.00
15272;BME280;7737;51.578;7.268;2023-04-19T04:43:31;102088.56;;;9.24;100.00
15272;BME280;7737;51.578;7.268;2023-04-19T04:45:57;102086.03;;;9.19;100.00
15272;BME280;7737;51.578;7.268;2023-04-19T04:48:26;102095.84;;;9.14;100.00
15272;BME280;7737;51.578;7.268;2023-04-19T04:50:53;102100.50;;;9.03;100.00
15272;BME280;7737;51.578;7.268;2023-04-19T04:53:19;102104.09;;;9.02;100.00
15272;BME280;7737;51.578;7.268;2023-04-19T04:55:46;102098.81;;;9.01;100.00
15272;BME280;7737;51.578;7.268;2023-04-19T04:58:12;102093.66;;;8.93;100.00
15272;BME280;7737;51.578;7.268;2023-04-19T05:00:39;102099.03;;;8.90;100.00
15272;BME280;7737;51.578;7.268;2023-04-19T05:03:06;102095.38;;;8.97;100.00
15272;BME280;7737;51.578;7.268;2023-04-19T05:05:34;102090.28;;;8.85;100.00
15272;BME280;7737;51.578;7.268;2023-04-19T05:08:00;102092.94;;;8.85;100.00
15272;BME280;7737;51.578;7.268;2023-04-19T05:10:27;102097.41;;;8.83;100.00
15272;BME280;7737;51.578;7.268;2023-04-19T05:12:53;102104.66;;;8.75;100.00
15272;BME280;7737;51.578;7.268;2023-04-19T05:15:20;102101.00;;;8.79;100.00
15272;BME280;7737;51.578;7.268;2023-04-19T05:17:46;102096.59;;;8.80;100.00
15272;BME280;7737;51.578;7.268;2023-04-19T05:20:13;102094.97;;;8.73;100.00
15272;BME280;7737;51.578;7.268;2023-04-19T05:22:41;102080.78;;;8.75;100.00
15272;BME280;7737;51.578;7.268;2023-04-19T05:25:08;102075.47;;;8.75;100.00
15272;BME280;7737;51.578;7.268;2023-04-19T05:27:35;102076.31;;;8.79;100.00
15272;BME280;7737;51.578;7.268;2023-04-19T05:30:02;102058.53;;;8.84;100.00
15272;BME280;7737;51.578;7.268;2023-04-19T05:32:29;102061.91;;;8.90;100.00
15272;BME280;7737;51.578;7.268;2023-04-19T05:34:56;102052.28;;;8.86;100.00
15272;BME280;7737;51.578;7.268;2023-04-19T05:37:22;102037.97;;;8.93;100.00
15272;BME280;7737;51.578;7.268;2023-04-19T05:39:50;102021.09;;;8.97;100.00
15272;BME280;7737;51.578;7.268;2023-04-19T05:42:17;102012.22;;;8.98;100.00
15272;BME280;7737;51.578;7.268;2023-04-19T05:44:43;102002.47;;;8.99;100.00
15272;BME280;7737;51.578;7.268;2023-04-19T05:47:10;102001.53;;;9.01;100.00
15272;BME280;7737;51.578;7.268;2023-04-19T05:49:36;101987.63;;;8.92;100.00
15272;BME280;7737;51.578;7.268;2023-04-19T05:52:03;101984.94;;;8.93;100.00
15272;BME280;7737;51.578;7.268;2023-04-19T05:54:30;101986.63;;;8.96;100.00
15272;BME280;7737;51.578;7.268;2023-04-19T05:57:01;101989.94;;;9.05;100.00
15272;BME280;7737;51.578;7.268;2023-04-19T05:59:27;101979.31;;;9.07;100.00
15272;BME280;7737;51.578;7.268;2023-04-19T06:01:54;101973.19;;;9.03;100.00
15272;BME280;7737;51.578;7.268;2023-04-19T06:04:21;101975.97;;;8.99;100.00
15272;BME280;7737;51.578;7.268;2023-04-19T06:06:47;101979.31;;;9.07;100.00
15272;BME280;7737;51.578;7.268;2023-04-19T06:09:14;101964.34;;;9.04;100.00
15272;BME280;7737;51.578;7.268;2023-04-19T06:11:42;101978.66;;;8.97;100.00
15272;BME280;7737;51.578;7.268;2023-04-19T06:14:10;101985.44;;;9.10;100.00
15272;BME280;7737;51.578;7.268;2023-04-19T06:16:37;101977.47;;;9.10;100.00
15272;BME280;7737;51.578;7.268;2023-04-19T06:19:04;101965.66;;;9.24;100.00
15272;BME280;7737;51.578;7.268;2023-04-19T06:21:32;101969.84;;;9.32;100.00
15272;BME280;7737;51.578;7.268;2023-04-19T06:23:58;101963.69;;;9.32;100.00
15272;BME280;7737;51.578;7.268;2023-04-19T06:26:25;101953.22;;;9.26;100.00
15272;BME280;7737;51.578;7.268;2023-04-19T06:28:51;101943.09;;;9.41;100.00
15272;BME280;7737;51.578;7.268;2023-04-19T06:31:19;101947.41;;;9.45;100.00
15272;BME280;7737;51.578;7.268;2023-04-19T06:33:46;101944.59;;;9.51;100.00
15272;BME280;7737;51.578;7.268;2023-04-19T06:36:12;101934.13;;;9.45;100.00
15272;BME280;7737;51.578;7.268;2023-04-19T06:38:39;101925.28;;;9.46;100.00
15272;BME280;7737;51.578;7.268;2023-04-19T06:41:06;101923.69;;;9.39;100.00
15272;BME280;7737;51.578;7.268;2023-04-19T06:43:33;101924.16;;;9.55;100.00
15272;BME280;7737;51.578;7.268;2023-04-19T06:46:00;101916.91;;;9.61;100.00
15272;BME280;7737;51.578;7.268;2023-04-19T06:48:28;101921.19;;;9.67;100.00
15272;BME280;7737;51.578;7.268;2023-04-19T06:50:55;101926.47;;;9.68;100.00
15272;BME280;7737;51.578;7.268;2023-04-19T06:53:22;101922.13;;;9.66;100.00
15272;BME280;7737;51.578;7.268;2023-04-19T06:55:56;101922.38;;;9.88;100.00
15272;BME280;7737;51.578;7.268;2023-04-19T06:58:23;101920.94;;;9.76;100.00
15272;BME280;7737;51.578;7.268;2023-04-19T07:00:50;101928.06;;;10.06;100.00
15272;BME280;7737;51.578;7.268;2023-04-19T07:03:16;101933.25;;;10.12;100.00
15272;BME280;7737;51.578;7.268;2023-04-19T07:05:44;101913.13;;;10.02;100.00
15272;BME280;7737;51.578;7.268;2023-04-19T07:08:11;101925.09;;;10.18;100.00
15272;BME280;7737;51.578;7.268;2023-04-19T07:10:37;101911.28;;;10.04;100.00
15272;BME280;7737;51.578;7.268;2023-04-19T07:13:04;101907.75;;;10.04;100.00
15272;BME280;7737;51.578;7.268;2023-04-19T07:15:30;101915.38;;;10.17;100.00
15272;BME280;7737;51.578;7.268;2023-04-19T07:17:57;101914.50;;;10.17;98.99
15272;BME280;7737;51.578;7.268;2023-04-19T07:20:23;101908.94;;;10.26;98.24
15272;BME280;7737;51.578;7.268;2023-04-19T07:22:51;101894.78;;;10.25;97.67
15272;BME280;7737;51.578;7.268;2023-04-19T07:25:18;101913.03;;;10.37;98.26
15272;BME280;7737;51.578;7.268;2023-04-19T07:27:44;101904.31;;;10.32;97.67
15272;BME280;7737;51.578;7.268;2023-04-19T07:30:11;101901.34;;;10.12;96.44
15272;BME280;7737;51.578;7.268;2023-04-19T07:32:38;101908.56;;;10.38;96.83
15272;BME280;7737;51.578;7.268;2023-04-19T07:35:05;101902.00;;;10.20;95.29
15272;BME280;7737;51.578;7.268;2023-04-19T07:37:32;101899.94;;;10.30;95.26
15272;BME280;7737;51.578;7.268;2023-04-19T07:40:00;101884.31;;;10.19;94.40
15272;BME280;7737;51.578;7.268;2023-04-19T07:42:28;101898.25;;;10.27;94.13
15272;BME280;7737;51.578;7.268;2023-04-19T07:44:55;101881.63;;;10.21;93.25
15272;BME280;7737;51.578;7.268;2023-04-19T07:47:21;101892.19;;;10.52;94.54
15272;BME280;7737;51.578;7.268;2023-04-19T07:49:50;101902.25;;;10.42;94.25
15272;BME280;7737;51.578;7.268;2023-04-19T07:52:17;101895.78;;;10.21;93.10
15272;BME280;7737;51.578;7.268;2023-04-19T07:54:44;101900.38;;;10.46;94.03
15272;BME280;7737;51.578;7.268;2023-04-19T07:57:12;101899.50;;;10.45;93.65
15272;BME280;7737;51.578;7.268;2023-04-19T07:59:39;101888.47;;;10.29;93.21
15272;BME280;7737;51.578;7.268;2023-04-19T08:02:05;101888.25;;;10.35;92.42
15272;BME280;7737;51.578;7.268;2023-04-19T08:04:32;101892.44;;;10.44;92.16
15272;BME280;7737;51.578;7.268;2023-04-19T08:06:59;101890.00;;;10.66;92.82
15272;BME280;7737;51.578;7.268;2023-04-19T08:09:28;101895.84;;;10.77;92.77
15272;BME280;7737;51.578;7.268;2023-04-19T08:11:54;101878.66;;;10.59;91.35
15272;BME280;7737;51.578;7.268;2023-04-19T08:14:22;101877.63;;;10.35;89.86
15272;BME280;7737;51.578;7.268;2023-04-19T08:16:49;101882.22;;;10.87;91.58
15272;BME280;7737;51.578;7.268;2023-04-19T08:19:15;101885.59;;;10.92;90.85
15272;BME280;7737;51.578;7.268;2023-04-19T08:21:42;101881.44;;;11.12;90.89
15272;BME280;7737;51.578;7.268;2023-04-19T08:24:08;101877.09;;;11.34;91.69
15272;BME280;7737;51.578;7.268;2023-04-19T08:26:35;101856.28;;;10.94;89.38
15272;BME280;7737;51.578;7.268;2023-04-19T08:29:03;101846.03;;;11.08;87.81
15272;BME280;7737;51.578;7.268;2023-04-19T08:31:31;101849.19;;;11.45;88.63
15272;BME280;7737;51.578;7.268;2023-04-19T08:33:57;101857.06;;;11.75;88.88
15272;BME280;7737;51.578;7.268;2023-04-19T08:36:25;101824.19;;;11.25;85.24
15272;BME280;7737;51.578;7.268;2023-04-19T08:38:52;101816.47;;;11.67;84.50
15272;BME280;7737;51.578;7.268;2023-04-19T08:41:19;101819.53;;;11.81;85.61
15272;BME280;7737;51.578;7.268;2023-04-19T08:43:47;101813.81;;;11.67;84.51
15272;BME280;7737;51.578;7.268;2023-04-19T08:46:16;101825.09;;;11.75;83.75
15272;BME280;7737;51.578;7.268;2023-04-19T08:48:45;101799.53;;;11.92;82.90
15272;BME280;7737;51.578;7.268;2023-04-19T08:51:13;101780.13;;;11.41;80.35
15272;BME280;7737;51.578;7.268;2023-04-19T08:53:43;101806.03;;;11.85;82.71
15272;BME280;7737;51.578;7.268;2023-04-19T08:56:11;101794.06;;;11.47;81.73
15272;BME280;7737;51.578;7.268;2023-04-19T08:58:38;101783.78;;;11.38;80.66
15272;BME280;7737;51.578;7.268;2023-04-19T09:01:06;101788.59;;;11.77;81.41
15272;BME280;7737;51.578;7.268;2023-04-19T09:03:33;101786.34;;;11.65;81.06
15272;BME280;7737;51.578;7.268;2023-04-19T09:06:02;101802.84;;;11.99;82.17
15272;BME280;7737;51.578;7.268;2023-04-19T09:08:29;101778.69;;;11.55;80.54
15272;BME280;7737;51.578;7.268;2023-04-19T09:10:57;101788.06;;;11.90;81.75
15272;BME280;7737;51.578;7.268;2023-04-19T09:13:25;101792.22;;;12.20;80.27
15272;BME280;7737;51.578;7.268;2023-04-19T09:15:52;101786.88;;;11.99;79.43
15272;BME280;7737;51.578;7.268;2023-04-19T09:18:21;101788.13;;;12.12;80.47
15272;BME280;7737;51.578;7.268;2023-04-19T09:20:49;101790.56;;;11.95;80.08
15272;BME280;7737;51.578;7.268;2023-04-19T09:23:23;101787.59;;;12.02;80.38
15272;BME280;7737;51.578;7.268;2023-04-19T09:25:52;101797.03;;;12.11;81.36
15272;BME280;7737;51.578;7.268;2023-04-19T09:28:19;101788.94;;;11.91;80.87
15272;BME280;7737;51.578;7.268;2023-04-19T09:30:46;101798.22;;;11.81;80.78
15272;BME280;7737;51.578;7.268;2023-04-19T09:33:12;101788.38;;;11.58;79.88
15272;BME280;7737;51.578;7.268;2023-04-19T09:35:41;101795.78;;;11.98;80.99
15272;BME280;7737;51.578;7.268;2023-04-19T09:38:08;101781.53;;;11.99;79.58
15272;BME280;7737;51.578;7.268;2023-04-19T09:40:37;101781.63;;;12.19;80.40
15272;BME280;7737;51.578;7.268;2023-04-19T09:43:04;101775.75;;;11.88;78.83
15272;BME280;7737;51.578;7.268;2023-04-19T09:45:39;101744.75;;;12.30;77.77
15272;BME280;7737;51.578;7.268;2023-04-19T09:48:06;101718.09;;;12.30;76.71
15272;BME280;7737;51.578;7.268;2023-04-19T09:50:33;101733.97;;;12.33;76.53
15272;BME280;7737;51.578;7.268;2023-04-19T09:53:01;101740.09;;;12.57;77.50
15272;BME280;7737;51.578;7.268;2023-04-19T09:55:28;101722.22;;;12.59;76.61
15272;BME280;7737;51.578;7.268;2023-04-19T09:57:57;101703.06;;;12.28;75.01
15272;BME280;7737;51.578;7.268;2023-04-19T10:00:24;101703.66;;;12.56;74.53
15272;BME280;7737;51.578;7.268;2023-04-19T10:02:51;101697.50;;;12.75;74.13
15272;BME280;7737;51.578;7.268;2023-04-19T10:05:22;101703.19;;;13.08;75.05
15272;BME280;7737;51.578;7.268;2023-04-19T10:07:49;101689.81;;;12.88;74.61
15272;BME280;7737;51.578;7.268;2023-04-19T10:10:17;101689.31;;;13.20;74.78
15272;BME280;7737;51.578;7.268;2023-04-19T10:12:48;101683.22;;;12.97;74.55
15272;BME280;7737;51.578;7.268;2023-04-19T10:15:19;101679.19;;;13.27;73.69
15272;BME280;7737;51.578;7.268;2023-04-19T10:17:46;101669.31;;;13.10;73.02
15272;BME280;7737;51.578;7.268;2023-04-19T10:20:19;101665.84;;;13.27;73.07
15272;BME280;7737;51.578;7.268;2023-04-19T10:22:48;101646.28;;;13.06;71.29
15272;BME280;7737;51.578;7.268;2023-04-19T10:25:15;101640.16;;;12.84;70.59
15272;BME280;7737;51.578;7.268;2023-04-19T10:27:43;101637.31;;;12.89;70.46
15272;BME280;7737;51.578;7.268;2023-04-19T10:30:18;101649.47;;;13.72;72.19
15272;BME280;7737;51.578;7.268;2023-04-19T10:32:46;101644.38;;;13.67;72.46
15272;BME280;7737;51.578;7.268;2023-04-19T10:35:18;101662.34;;;13.82;72.41
15272;BME280;7737;51.578;7.268;2023-04-19T10:38:06;101640.66;;;13.32;70.92
15272;BME280;7737;51.578;7.268;2023-04-19T10:40:58;101635.69;;;13.62;70.57
15272;BME280;7737;51.578;7.268;2023-04-19T10:43:28;101627.03;;;13.57;68.84
15272;BME280;7737;51.578;7.268;2023-04-19T10:45:59;101627.72;;;14.34;70.09
15272;BME280;7737;51.578;7.268;2023-04-19T10:48:37;101605.66;;;14.29;67.74
15272;BME280;7737;51.578;7.268;2023-04-19T10:51:11;101601.53;;;14.04;67.51
15272;BME280;7737;51.578;7.268;2023-04-19T10:53:43;101596.13;;;13.70;65.93
15272;BME280;7737;51.578;7.268;2023-04-19T10:56:10;101577.22;;;13.56;63.89
15272;BME280;7737;51.578;7.268;2023-04-19T10:59:12;101568.38;;;14.26;64.42
15272;BME280;7737;51.578;7.268;2023-04-19T11:01:48;101548.25;;;14.36;63.39
15272;BME280;7737;51.578;7.268;2023-04-19T11:04:16;101526.84;;;14.36;61.44
15272;BME280;7737;51.578;7.268;2023-04-19T11:07:01;101504.75;;;14.15;59.66
15272;BME280;7737;51.578;7.268;2023-04-19T11:09:30;101516.94;;;14.88;61.00
15272;BME280;7737;51.578;7.268;2023-04-19T11:12:00;101518.16;;;14.65;61.44
15272;BME280;7737;51.578;7.268;2023-04-19T11:14:29;101518.06;;;14.99;60.11
15272;BME280;7737;51.578;7.268;2023-04-19T11:16:59;101502.50;;;14.57;59.09
15272;BME280;7737;51.578;7.268;2023-04-19T11:19:25;101493.59;;;14.90;58.42
15272;BME280;7737;51.578;7.268;2023-04-19T11:21:57;101489.66;;;14.64;58.10
15272;BME280;7737;51.578;7.268;2023-04-19T11:24:23;101499.91;;;15.04;59.12
15272;BME280;7737;51.578;7.268;2023-04-19T11:26:50;101504.44;;;15.19;59.10
15272;BME280;7737;51.578;7.268;2023-04-19T11:29:18;101498.88;;;15.22;59.10
15272;BME280;7737;51.578;7.268;2023-04-19T11:31:46;101495.09;;;14.95;58.56
15272;BME280;7737;51.578;7.268;2023-04-19T11:34:14;101499.16;;;15.18;59.33
15272;BME280;7737;51.578;7.268;2023-04-19T11:36:48;101458.94;;;14.71;56.16
15272;BME280;7737;51.578;7.268;2023-04-19T11:39:15;101429.72;;;14.51;54.31
15272;BME280;7737;51.578;7.268;2023-04-19T11:41:42;101447.56;;;15.30;55.86
15272;BME280;7737;51.578;7.268;2023-04-19T11:44:12;101429.25;;;15.07;54.98
15272;BME280;7737;51.578;7.268;2023-04-19T11:46:39;101430.81;;;14.95;54.51
15272;BME280;7737;51.578;7.268;2023-04-19T11:49:06;101454.03;;;15.87;56.41
15272;BME280;7737;51.578;7.268;2023-04-19T11:51:33;101416.72;;;15.07;54.12
15272;BME280;7737;51.578;7.268;2023-04-19T11:54:00;101424.25;;;15.16;54.12
15272;BME280;7737;51.578;7.268;2023-04-19T11:56:27;101420.56;;;15.33;53.93
15272;BME280;7737;51.578;7.268;2023-04-19T11:58:56;101428.19;;;15.56;55.09
15272;BME280;7737;51.578;7.268;2023-04-19T12:01:23;101416.44;;;15.73;54.57
15272;BME280;7737;51.578;7.268;2023-04-19T12:03:51;101413.75;;;15.27;53.60
15272;BME280;7737;51.578;7.268;2023-04-19T12:06:21;101392.59;;;15.23;53.40
15272;BME280;7737;51.578;7.268;2023-04-19T12:08:50;101393.53;;;15.53;52.88
15272;BME280;7737;51.578;7.268;2023-04-19T12:11:18;101392.22;;;15.45;53.31
15272;BME280;7737;51.578;7.268;2023-04-19T12:13:45;101378.97;;;14.96;52.43
15272;BME280;7737;51.578;7.268;2023-04-19T12:16:12;101408.88;;;15.04;53.07
15272;BME280;7737;51.578;7.268;2023-04-19T12:18:44;101426.91;;;15.32;54.82
15272;BME280;7737;51.578;7.268;2023-04-19T12:21:23;101411.03;;;14.82;53.47
15272;BME280;7737;51.578;7.268;2023-04-19T12:23:54;101424.59;;;15.71;55.64
15272;BME280;7737;51.578;7.268;2023-04-19T12:26:22;101413.84;;;15.42;54.29
15272;BME280;7737;51.578;7.268;2023-04-19T12:28:49;101385.56;;;14.75;52.79
15272;BME280;7737;51.578;7.268;2023-04-19T12:31:16;101389.09;;;15.82;53.96
15272;BME280;7737;51.578;7.268;2023-04-19T12:33:42;101395.72;;;15.91;54.23
15272;BME280;7737;51.578;7.268;2023-04-19T12:36:09;101384.88;;;15.78;53.89
15272;BME280;7737;51.578;7.268;2023-04-19T12:38:35;101386.66;;;16.35;53.72
15272;BME280;7737;51.578;7.268;2023-04-19T12:41:04;101368.06;;;16.18;53.14
15272;BME280;7737;51.578;7.268;2023-04-19T12:43:30;101365.56;;;16.58;53.79
15272;BME280;7737;51.578;7.268;2023-04-19T12:45:57;101313.66;;;15.88;49.88
15272;BME280;7737;51.578;7.268;2023-04-19T12:48:23;101346.91;;;16.28;51.76
15272;BME280;7737;51.578;7.268;2023-04-19T12:50:50;101323.81;;;16.11;50.04
15272;BME280;7737;51.578;7.268;2023-04-19T12:53:17;101302.53;;;15.80;49.54
15272;BME280;7737;51.578;7.268;2023-04-19T12:55:44;101305.97;;;16.24;49.51
15272;BME280;7737;51.578;7.268;2023-04-19T12:58:13;101294.69;;;16.19;48.69
15272;BME280;7737;51.578;7.268;2023-04-19T13:00:40;101294.19;;;16.13;49.27